Terminal Aerodrome Forecast
Issued by NWS Melbourne, FL

Home | Current Version | Previous Version | Text Only | Print | Product List | Glossary On
Versions: 1 2 3 4 5 6 7 8 9 10 11 12 13 14 15 16 17 18 19 20 21 22 23 24 25 26 27 28 29
000
FTUS42 KMLB 301700
TAFMCO
TAF
KMCO 301734Z 3018/0118 27006KT P6SM VCTS SCT024CB BKN100 BKN250
      TEMPO 3018/3020 3SM TSRA BKN025CB
     FM302000 29007KT P6SM SCT020 OVC040
      TEMPO 3020/3023 2SM SHRA BKN020
     FM010000 30004KT P6SM VCSH SCT020 BKN040
     FM010300 31003KT P6SM SCT020 SCT100 BKN250
     FM011400 33006KT P6SM SCT015 BKN035=

USA.gov is the U.S. government's official web portal to all federal, state and local government web resources and services.